Aérodrome :
LOGIN :

S'inscrire | Disclaimer

   EN    FR    IT 

 










Légende :    VFR   VFR Marginal   IFR   IFR Intensif   IFR Très Intensif
Visi : 
Plafond : 
>= 8 km
>= 3000ft
5 à 8 km
1000 à 3000 ft
1500m à 5 km
500 à 1000 ft
800 à 1500m
200 à 500 ft
< 800m
< 200 ft
Symboles :   Orages  Brouillard  Fortes neiges  Fortes précipitations  Vent > 20 kt
SIGMETs :   Divers  Orages  Givrage  Turbulence  Onde Orograph.  Cendres Volcan.






- Altitude de l'aérodrome : 584 ft


LFPV - Villacoublay Vélizy

DERNIER METAR :
  • 171730Z AUTO 34003KT 9999 SCT024 OVC033 07/04 Q1009 NOSIG

METARs EXPIRÉS :
  • 171700Z AUTO 33004KT 9999 SCT023 OVC031 07/03 Q1009 NOSIG
  • 171630Z AUTO 34004KT 9999 BKN025 OVC030 07/03 Q1009 NOSIG
  • 171600Z AUTO 34004KT 9999 OVC027 07/04 Q1009 NOSIG
  • 171530Z AUTO 34005KT 9999 FEW020 OVC027 07/04 Q1009 NOSIG
  • 171500Z AUTO 34005KT 310V020 9999 BKN024 OVC033 07/03 Q1009 NOSIG

TAF TAF LFPV
Valide du 17 à 15h jusqu'au 18 à 15h UTC


171400Z 1715/1815 02007KT 9999 SCT020 BKN240
TEMPO 1805/1809 -RADZ BKN010
TEMPO 1811/1815 RA



MET'MAP, la Météo Aéronautique d'un coup d'oeil ! - Copyright ORBIFLY Décembre 2007 - Disclaimer

ORBIFLY MET'MAP TEAM :

Programmation & Développement : Alexandra Zaïnal
Conception & Développement : Baudouin d'Aumeries
Co-Programmation & Développement : Marc-Olivier Méhu
Soutien technique & logistique : Manuel Goepfert

Contact : metmap@orbifly.com




SOURCES & CREDITS :

   NOAA